createdAt,value
2022-07-31T00:04:46.605Z,150066.56
2022-07-31T00:09:54.426Z,150084.69
2022-07-31T00:14:58.053Z,150066.56
2022-07-31T00:20:03.110Z,150049.72
2022-07-31T00:25:07.828Z,150095.03
2022-07-31T00:30:13.123Z,150052.34
2022-07-31T00:35:17.885Z,150034.19
2022-07-31T00:40:21.303Z,150026.41
2022-07-31T00:45:29.017Z,150057.50
2022-07-31T00:50:34.222Z,150057.50
2022-07-31T00:55:42.886Z,150073.03
2022-07-31T01:00:55.419Z,150092.41
2022-07-31T01:06:00.238Z,150114.44
2022-07-31T01:11:07.635Z,150101.47
2022-07-31T01:16:19.390Z,150129.94
2022-07-31T01:21:30.460Z,150123.44
2022-07-31T01:26:43.824Z,150122.16
2022-07-31T01:31:53.679Z,150139.00
2022-07-31T01:37:05.458Z,150114.44
2022-07-31T01:42:11.202Z,150066.56
2022-07-31T01:47:21.092Z,150065.28
2022-07-31T01:52:27.930Z,150080.78
2022-07-31T01:57:33.184Z,150084.69
2022-07-31T02:02:42.378Z,150044.53
2022-07-31T02:07:48.213Z,150038.06
2022-07-31T02:12:52.793Z,150013.50
2022-07-31T02:17:59.856Z,150012.22
2022-07-31T02:23:09.289Z,150003.16
2022-07-31T02:28:16.067Z,149982.47
2022-07-31T02:33:23.249Z,149972.13
2022-07-31T02:38:29.255Z,149935.94
2022-07-31T02:43:35.319Z,149932.09
2022-07-31T02:48:50.578Z,149926.88
2022-07-31T02:53:56.251Z,149924.31
2022-07-31T02:59:02.761Z,149879.09
2022-07-31T03:04:18.677Z,149866.19
2022-07-31T03:09:22.542Z,149848.06
2022-07-31T03:14:36.369Z,149846.78
2022-07-31T03:19:41.806Z,149822.25
2022-07-31T03:24:45.808Z,149808.00
2022-07-31T03:29:49.554Z,149786.03
2022-07-31T03:34:54.853Z,149795.09
2022-07-31T03:39:58.509Z,149795.09
2022-07-31T03:45:03.212Z,149801.56
2022-07-31T03:50:10.043Z,149792.50
2022-07-31T03:55:14.617Z,149787.31
2022-07-31T04:00:20.626Z,149771.84
2022-07-31T04:05:25.807Z,149776.97
2022-07-31T04:10:29.664Z,149767.97
2022-07-31T04:15:33.485Z,149762.78
2022-07-31T04:20:38.543Z,149779.59
2022-07-31T04:25:42.186Z,149766.66
2022-07-31T04:30:58.664Z,149752.41
2022-07-31T04:36:03.390Z,149761.50
2022-07-31T04:41:06.757Z,149745.97
2022-07-31T04:46:17.241Z,149731.72
2022-07-31T04:51:24.595Z,149724.00
2022-07-31T04:56:37.705Z,149739.50
2022-07-31T05:01:43.582Z,149714.97
2022-07-31T05:06:53.215Z,149736.91
2022-07-31T05:11:56.771Z,149717.53
2022-07-31T05:17:00.565Z,149669.75
2022-07-31T05:22:18.909Z,149671.06
2022-07-31T05:27:41.370Z,149687.81
2022-07-31T05:32:44.916Z,149655.53
2022-07-31T05:37:50.106Z,149646.47
2022-07-31T05:42:55.813Z,149681.38
2022-07-31T05:48:18.441Z,149714.97
2022-07-31T05:53:23.418Z,149704.63
2022-07-31T05:58:52.826Z,149691.72
2022-07-31T06:03:56.184Z,149705.91
2022-07-31T06:09:07.001Z,149638.78
2022-07-31T06:14:13.803Z,149631.00
2022-07-31T06:19:46.623Z,149627.16
2022-07-31T06:24:51.820Z,149643.91
2022-07-31T06:29:56.750Z,149646.47
2022-07-31T06:35:00.049Z,149623.25
2022-07-31T06:40:07.581Z,149633.56
2022-07-31T06:45:48.487Z,149649.09
2022-07-31T06:56:36.691Z,149636.16
2022-07-31T07:01:40.194Z,149641.34
2022-07-31T07:06:43.796Z,149624.53
2022-07-31T07:11:54.478Z,149638.78
2022-07-31T07:16:58.357Z,149592.25
2022-07-31T07:22:02.317Z,149618.09
2022-07-31T07:27:07.883Z,149593.53
2022-07-31T07:32:13.337Z,149593.53
2022-07-31T07:37:17.069Z,149576.78
2022-07-31T07:42:22.782Z,149550.97
2022-07-31T07:47:26.240Z,149583.25
2022-07-31T07:52:50.500Z,149576.78
2022-07-31T07:58:18.305Z,149590.97
2022-07-31T08:03:50.071Z,149597.44
2022-07-31T08:08:55.948Z,149605.19
2022-07-31T08:14:20.493Z,149610.34
2022-07-31T08:19:46.158Z,149627.16
2022-07-31T08:24:53.138Z,149638.78
2022-07-31T08:30:00.269Z,149674.91
2022-07-31T08:35:06.026Z,149691.72
2022-07-31T08:40:10.305Z,149631.00
2022-07-31T08:45:16.102Z,149649.09
2022-07-31T08:50:26.419Z,149643.91
2022-07-31T08:55:55.409Z,149628.44
2022-07-31T09:00:58.341Z,149624.53
2022-07-31T09:06:01.723Z,149647.75
2022-07-31T09:11:06.488Z,149636.16
2022-07-31T09:16:15.858Z,149702.00
2022-07-31T09:21:19.385Z,149700.72
2022-07-31T09:26:34.511Z,149686.53
2022-07-31T09:31:39.909Z,149717.53
2022-07-31T09:37:09.200Z,149678.75
2022-07-31T09:42:39.378Z,149707.19
2022-07-31T09:48:15.251Z,149720.09
2022-07-31T09:53:24.616Z,149760.22
2022-07-31T09:58:33.753Z,149782.19
2022-07-31T10:03:40.679Z,149752.41
2022-07-31T10:08:46.465Z,149784.75
2022-07-31T10:14:04.123Z,149809.28
2022-07-31T10:19:13.501Z,149832.59
2022-07-31T10:24:32.838Z,149809.28
2022-07-31T10:29:39.414Z,149754.97
2022-07-31T10:34:45.095Z,149760.22
2022-07-31T10:40:15.304Z,149758.94
2022-07-31T10:45:23.140Z,149757.59
2022-07-31T10:50:46.796Z,149740.78
2022-07-31T10:56:02.964Z,149747.25
2022-07-31T11:01:21.169Z,149738.22
2022-07-31T11:06:50.541Z,149742.06
2022-07-31T11:12:18.849Z,149760.22
2022-07-31T11:18:20.173Z,149739.50
2022-07-31T11:23:18.820Z,149713.69
2022-07-31T11:28:24.037Z,149747.25
2022-07-31T11:33:42.753Z,149780.91
2022-07-31T11:38:51.123Z,149771.84
2022-07-31T11:43:55.957Z,149749.84
2022-07-31T11:49:00.453Z,149757.59
2022-07-31T11:54:05.523Z,149767.97
2022-07-31T11:59:08.909Z,149773.13
2022-07-31T12:04:33.222Z,149786.03
2022-07-31T12:10:01.328Z,149811.91
2022-07-31T12:15:02.957Z,149819.63
2022-07-31T12:20:08.135Z,149860.97
2022-07-31T12:25:12.895Z,149862.28
2022-07-31T12:30:17.814Z,149912.69
2022-07-31T12:35:22.123Z,149946.28
2022-07-31T12:40:29.300Z,149982.47
2022-07-31T12:45:34.953Z,149988.94
2022-07-31T12:50:38.330Z,150023.84
2022-07-31T12:55:43.071Z,150117.00
2022-07-31T13:00:46.504Z,150171.34
2022-07-31T13:05:52.150Z,150210.09
2022-07-31T13:10:57.020Z,150180.41
2022-07-31T13:16:00.476Z,150194.59
2022-07-31T13:21:03.800Z,150141.56
2022-07-31T13:26:08.736Z,150206.25
2022-07-31T13:31:12.137Z,150256.72
2022-07-31T13:36:15.723Z,150267.06
2022-07-31T13:41:25.111Z,150248.94
2022-07-31T13:46:30.109Z,150282.56
2022-07-31T13:51:33.586Z,150267.06
2022-07-31T13:56:43.244Z,150325.28
2022-07-31T14:02:05.285Z,150335.69
2022-07-31T14:07:09.630Z,150356.38
2022-07-31T14:12:17.806Z,150343.47
2022-07-31T14:17:21.146Z,150329.19
2022-07-31T14:22:24.529Z,150334.41
2022-07-31T14:27:29.216Z,150391.31
2022-07-31T14:32:32.563Z,150353.81
2022-07-31T14:37:35.935Z,150430.16
2022-07-31T14:42:41.737Z,150443.09
2022-07-31T14:47:46.501Z,150419.81
2022-07-31T14:52:49.933Z,150432.75
2022-07-31T14:57:54.664Z,150432.75
2022-07-31T15:02:58.259Z,150478.06
2022-07-31T15:08:02.675Z,150441.81
2022-07-31T15:13:09.040Z,150436.63
2022-07-31T15:18:12.796Z,150414.59
2022-07-31T15:23:16.180Z,150412.03
2022-07-31T15:28:20.909Z,150435.31
2022-07-31T15:33:24.859Z,150401.69
2022-07-31T15:38:28.227Z,150387.47
2022-07-31T15:43:35.171Z,150371.91
2022-07-31T15:48:39.385Z,150355.09
2022-07-31T15:53:42.748Z,150395.19
2022-07-31T15:58:49.858Z,150410.75
2022-07-31T16:03:56.843Z,150446.97
2022-07-31T16:09:03.145Z,150440.53
2022-07-31T16:14:07.863Z,150493.56
2022-07-31T16:19:11.439Z,150505.22
2022-07-31T16:24:18.698Z,150507.84
2022-07-31T16:29:59.487Z,150513.00
2022-07-31T16:34:52.685Z,150535.00
2022-07-31T16:39:59.773Z,150540.22
2022-07-31T16:45:05.402Z,150569.94
2022-07-31T16:50:09.876Z,150544.06
2022-07-31T16:55:13.648Z,150620.53
2022-07-31T17:00:18.897Z,150611.44
2022-07-31T17:05:22.303Z,150665.84
2022-07-31T17:10:27.024Z,150667.13
2022-07-31T17:15:32.524Z,150678.78
2022-07-31T17:20:37.243Z,150656.78
2022-07-31T17:25:47.110Z,150707.31
2022-07-31T17:30:54.255Z,150665.84
2022-07-31T17:35:57.896Z,150699.53
2022-07-31T17:41:03.177Z,150713.81
2022-07-31T17:46:09.392Z,150678.78
2022-07-31T17:51:20.844Z,150691.78
2022-07-31T17:56:24.667Z,150652.91
2022-07-31T18:01:29.624Z,150650.31
2022-07-31T18:06:33.376Z,150676.22
2022-07-31T18:11:36.701Z,150674.91
2022-07-31T18:16:41.421Z,150630.88
2022-07-31T18:21:44.782Z,150650.31
2022-07-31T18:26:48.219Z,150647.75
2022-07-31T18:31:52.907Z,150612.75
2022-07-31T18:36:56.469Z,150621.81
2022-07-31T18:41:59.855Z,150582.94
2022-07-31T18:47:04.732Z,150559.59
2022-07-31T18:52:08.547Z,150557.00
2022-07-31T18:57:12.274Z,150544.06
2022-07-31T19:02:17.051Z,150550.56
2022-07-31T19:07:25.701Z,150513.00
2022-07-31T19:12:29.108Z,150497.47
2022-07-31T19:17:44.006Z,150480.63
2022-07-31T19:22:48.585Z,150468.97
2022-07-31T19:27:52.420Z,150435.31
2022-07-31T19:32:57.575Z,150390.03
2022-07-31T19:38:02.789Z,150393.91
2022-07-31T19:43:06.207Z,150393.91
2022-07-31T19:48:10.940Z,150370.59
2022-07-31T19:53:14.807Z,150375.81
2022-07-31T19:58:18.498Z,150358.97
2022-07-31T20:03:23.296Z,150375.81
2022-07-31T20:08:29.664Z,150355.09
2022-07-31T20:13:37.785Z,150342.13
2022-07-31T20:18:42.659Z,150356.38
2022-07-31T20:23:48.955Z,150344.75
2022-07-31T20:28:52.810Z,150357.69
2022-07-31T20:33:58.296Z,150366.75
2022-07-31T20:39:04.163Z,150355.09
2022-07-31T20:44:07.614Z,150344.75
2022-07-31T20:49:19.845Z,150331.81
2022-07-31T20:54:36.527Z,150311.06
2022-07-31T20:59:40.004Z,150277.41
2022-07-31T21:04:44.869Z,150255.38
2022-07-31T21:09:48.838Z,150265.72
2022-07-31T21:14:52.156Z,150259.28
2022-07-31T21:19:57.129Z,150230.81
2022-07-31T21:25:02.118Z,150241.16
2022-07-31T21:30:06.956Z,150270.94
2022-07-31T21:35:12.984Z,150252.81
2022-07-31T21:40:17.567Z,150215.31
2022-07-31T21:45:22.160Z,150193.31
2022-07-31T21:50:30.517Z,150207.53
2022-07-31T21:55:33.818Z,150220.47
2022-07-31T22:00:37.776Z,150203.66
2022-07-31T22:05:59.907Z,150176.47
2022-07-31T22:11:03.271Z,150153.22
2022-07-31T22:16:07.675Z,150131.22
2022-07-31T22:21:13.023Z,150079.47
2022-07-31T22:26:16.829Z,150070.44
2022-07-31T22:31:20.589Z,150040.69
2022-07-31T22:36:26.890Z,149983.75
2022-07-31T22:41:30.553Z,149964.41
2022-07-31T22:46:34.812Z,149946.28
2022-07-31T22:51:42.642Z,149907.50
2022-07-31T22:56:49.531Z,149877.81
2022-07-31T23:01:52.945Z,149859.69
2022-07-31T23:06:57.994Z,149832.59
2022-07-31T23:12:02.715Z,149833.88
2022-07-31T23:17:06.273Z,149793.81
2022-07-31T23:22:11.018Z,149776.97
2022-07-31T23:27:14.475Z,149753.69
2022-07-31T23:32:17.800Z,149744.63
2022-07-31T23:37:22.574Z,149740.78
2022-07-31T23:42:41.273Z,149744.63
2022-07-31T23:47:46.880Z,149713.69
2022-07-31T23:52:51.648Z,149677.47
2022-07-31T23:57:55.220Z,149702.00
